Time;durP1;ratioP1;P1;durP2;ratioP2;P2;SDS_P1;SDS_P2;PMS_P1;PMS_P2;Temp;Humidity;BMP_temperature;BMP_pressure;BME280_temperature;BME280_humidity;BME280_pressure;Samples;Min_cycle;Max_cycle;Signal;HPM_P1;HPM_P2
2024/03/14 00:00:16;;;;;;;;;;;16.00;83.70;;;;;;4016207;29;19934;-47
2024/03/14 00:02:58;;;;;;;;;;;16.00;83.60;;;;;;4016956;29;19938;-45
2024/03/14 00:05:39;;;;;;;;;;;16.00;83.50;;;;;;4015271;29;19951;-46
2024/03/14 00:08:20;;;;;;;;;;;15.90;83.50;;;;;;4005514;29;20072;-43
2024/03/14 00:11:01;;;;;;;;;;;15.90;83.60;;;;;;4016112;29;20289;-43
2024/03/14 00:13:45;;;;;;;;;;;15.90;83.60;;;;;;4005054;29;20388;-46
2024/03/14 00:16:27;;;;;;;;;;;15.90;83.70;;;;;;4015001;29;20014;-48
2024/03/14 00:19:08;;;;;;;;;;;15.90;83.60;;;;;;4000240;29;19951;-47
2024/03/14 00:21:48;;;;;;;;;;;15.90;83.80;;;;;;3990250;29;19931;-47
2024/03/14 00:24:29;;;;;;;;;;;15.90;84.70;;;;;;3990057;29;19931;-45
2024/03/14 00:27:10;;;;;;;;;;;15.90;83.80;;;;;;4001439;29;19947;-43
2024/03/14 00:29:55;;;;;;;;;;;15.90;83.80;;;;;;4026822;29;20049;-43
2024/03/14 00:32:36;;;;;;;;;;;15.90;83.70;;;;;;4000199;29;19931;-46
2024/03/14 00:35:17;;;;;;;;;;;15.90;83.80;;;;;;3999619;29;19931;-51
2024/03/14 00:38:00;;;;;;;;;;;15.80;83.80;;;;;;4000605;29;19944;-44
2024/03/14 00:40:41;;;;;;;;;;;15.80;83.70;;;;;;3999880;29;19935;-48
2024/03/14 00:43:21;;;;;;;;;;;15.80;83.80;;;;;;4000695;29;19932;-47
2024/03/14 00:46:02;;;;;;;;;;;15.80;83.80;;;;;;4003760;29;20007;-49
2024/03/14 00:48:44;;;;;;;;;;;15.90;83.90;;;;;;4000609;29;19931;-50
2024/03/14 00:51:25;;;;;;;;;;;15.80;83.90;;;;;;4000555;29;19931;-47
2024/03/14 00:54:07;;;;;;;;;;;15.80;83.90;;;;;;4000528;29;20073;-50
2024/03/14 00:56:48;;;;;;;;;;;15.80;83.90;;;;;;4000605;29;19975;-47
2024/03/14 00:59:30;;;;;;;;;;;15.80;84.00;;;;;;4000615;29;19931;-45
2024/03/14 01:02:11;;;;;;;;;;;15.80;84.00;;;;;;4000030;29;20060;-43
2024/03/14 01:04:54;;;;;;;;;;;15.80;84.00;;;;;;4003711;29;19935;-44
2024/03/14 01:07:34;;;;;;;;;;;15.80;84.10;;;;;;4003708;29;19931;-43
2024/03/14 01:10:15;;;;;;;;;;;15.80;84.20;;;;;;4008244;29;20052;-44
2024/03/14 01:12:56;;;;;;;;;;;15.80;84.20;;;;;;4003735;29;20302;-46
2024/03/14 01:15:38;;;;;;;;;;;15.80;84.20;;;;;;4003605;29;19935;-49
2024/03/14 01:18:19;;;;;;;;;;;15.80;84.20;;;;;;4004973;29;19931;-45
2024/03/14 01:21:00;;;;;;;;;;;15.80;85.00;;;;;;4003329;29;19951;-44
2024/03/14 01:23:41;;;;;;;;;;;15.80;84.20;;;;;;4003649;29;19939;-42
2024/03/14 01:26:22;;;;;;;;;;;15.70;84.20;;;;;;4003501;29;19947;-44
2024/03/14 01:29:06;;;;;;;;;;;15.70;84.30;;;;;;4003470;29;19931;-46
2024/03/14 01:31:48;;;;;;;;;;;15.70;84.30;;;;;;4001982;29;20409;-44
2024/03/14 01:34:30;;;;;;;;;;;15.70;84.40;;;;;;4011370;29;19979;-44
2024/03/14 01:37:11;;;;;;;;;;;15.70;84.40;;;;;;4012555;29;19930;-44
2024/03/14 01:39:53;;;;;;;;;;;15.70;84.50;;;;;;4011496;29;19934;-46
2024/03/14 01:42:34;;;;;;;;;;;15.70;84.60;;;;;;4012098;29;19935;-46
2024/03/14 01:45:15;;;;;;;;;;;15.70;85.50;;;;;;4001671;29;20298;-48
2024/03/14 01:47:56;;;;;;;;;;;15.70;84.70;;;;;;4003368;29;20342;-49
2024/03/14 01:50:37;;;;;;;;;;;15.70;84.70;;;;;;4001445;29;20014;-48
2024/03/14 01:53:17;;;;;;;;;;;15.70;85.60;;;;;;4002160;29;19931;-44
2024/03/14 01:55:59;;;;;;;;;;;15.70;84.70;;;;;;4002480;29;20008;-45
2024/03/14 01:58:40;;;;;;;;;;;15.70;84.70;;;;;;4002511;29;19935;-44
2024/03/14 02:01:21;;;;;;;;;;;15.70;84.80;;;;;;4002239;29;19983;-43
2024/03/14 02:04:02;;;;;;;;;;;15.70;84.90;;;;;;4002802;29;20381;-44
2024/03/14 02:06:43;;;;;;;;;;;15.70;84.90;;;;;;4007097;29;20018;-46
2024/03/14 02:09:28;;;;;;;;;;;15.70;84.90;;;;;;4010091;29;19931;-45
2024/03/14 02:12:10;;;;;;;;;;;15.70;85.00;;;;;;4002967;29;20289;-45
2024/03/14 02:14:51;;;;;;;;;;;15.60;85.00;;;;;;4005688;29;20019;-44
2024/03/14 02:17:32;;;;;;;;;;;15.70;85.00;;;;;;4010298;29;19935;-45
2024/03/14 02:20:14;;;;;;;;;;;15.60;85.00;;;;;;4009949;29;19935;-47
2024/03/14 02:22:55;;;;;;;;;;;15.60;85.10;;;;;;4002216;29;19931;-45
2024/03/14 02:25:36;;;;;;;;;;;15.60;85.10;;;;;;3991701;29;20023;-44
2024/03/14 02:28:17;;;;;;;;;;;15.60;85.10;;;;;;4002060;29;19935;-46
2024/03/14 02:30:58;;;;;;;;;;;15.60;85.10;;;;;;3992281;29;20388;-44
2024/03/14 02:33:39;;;;;;;;;;;15.60;85.10;;;;;;4002379;29;20060;-50
2024/03/14 02:36:20;;;;;;;;;;;15.60;85.20;;;;;;4002422;29;20314;-49
2024/03/14 02:39:01;;;;;;;;;;;15.60;85.30;;;;;;4002154;29;20458;-48
2024/03/14 02:41:41;;;;;;;;;;;15.60;85.30;;;;;;4001749;29;20442;-44
2024/03/14 02:44:23;;;;;;;;;;;15.60;85.30;;;;;;3992289;29;19979;-50
2024/03/14 02:47:07;;;;;;;;;;;15.60;85.20;;;;;;4004632;29;19930;-48
2024/03/14 02:49:47;;;;;;;;;;;15.60;85.30;;;;;;4017750;29;20021;-47
2024/03/14 02:52:28;;;;;;;;;;;15.60;85.30;;;;;;4016969;29;19946;-47
2024/03/14 02:55:09;;;;;;;;;;;15.60;85.30;;;;;;4011815;29;19935;-49
2024/03/14 02:57:50;;;;;;;;;;;15.60;85.30;;;;;;4001933;29;19952;-49
2024/03/14 03:00:32;;;;;;;;;;;15.60;85.30;;;;;;4001600;29;19999;-50
2024/03/14 03:03:13;;;;;;;;;;;15.60;85.40;;;;;;3992584;29;20397;-49
2024/03/14 03:05:55;;;;;;;;;;;15.60;85.40;;;;;;4002184;29;19931;-48
2024/03/14 03:08:37;;;;;;;;;;;15.50;85.30;;;;;;4015479;29;19978;-49
2024/03/14 03:11:17;;;;;;;;;;;15.50;85.40;;;;;;4008310;29;19947;-44
2024/03/14 03:13:59;;;;;;;;;;;15.50;85.40;;;;;;4001169;29;19935;-45
2024/03/14 03:16:39;;;;;;;;;;;15.50;85.40;;;;;;4001303;29;20718;-44
2024/03/14 03:19:20;;;;;;;;;;;15.50;85.50;;;;;;4001454;29;19931;-43
2024/03/14 03:22:01;;;;;;;;;;;15.50;85.40;;;;;;4001679;29;20065;-45
2024/03/14 03:24:41;;;;;;;;;;;15.50;86.30;;;;;;3991072;29;20008;-47
2024/03/14 03:27:23;;;;;;;;;;;15.50;85.40;;;;;;4001598;29;19951;-44
2024/03/14 03:30:05;;;;;;;;;;;15.50;85.50;;;;;;4001710;29;20024;-44
2024/03/14 03:32:45;;;;;;;;;;;15.50;85.50;;;;;;4016400;29;19934;-46
2024/03/14 03:35:26;;;;;;;;;;;15.50;85.50;;;;;;4016731;29;19931;-45
2024/03/14 03:38:09;;;;;;;;;;;15.50;85.50;;;;;;4016629;29;19935;-47
2024/03/14 03:40:50;;;;;;;;;;;15.50;85.50;;;;;;4014361;29;19930;-45
2024/03/14 03:43:30;;;;;;;;;;;15.50;85.60;;;;;;4003780;29;19946;-44
2024/03/14 03:46:11;;;;;;;;;;;15.50;85.50;;;;;;4000954;29;19979;-46
2024/03/14 03:48:51;;;;;;;;;;;15.50;85.60;;;;;;3990678;29;19975;-45
2024/03/14 03:51:33;;;;;;;;;;;15.40;85.50;;;;;;4000997;29;20063;-44
2024/03/14 03:54:13;;;;;;;;;;;15.40;85.60;;;;;;4001063;29;19935;-44
2024/03/14 03:56:54;;;;;;;;;;;15.40;85.60;;;;;;4000658;29;19935;-44
2024/03/14 03:59:34;;;;;;;;;;;15.50;85.70;;;;;;4000924;29;20071;-44
2024/03/14 04:02:18;;;;;;;;;;;15.50;85.70;;;;;;4000918;29;19931;-44
2024/03/14 04:04:58;;;;;;;;;;;15.40;85.70;;;;;;4001666;29;19930;-44
2024/03/14 04:07:39;;;;;;;;;;;15.40;85.70;;;;;;4001189;29;19939;-43
2024/03/14 04:10:23;;;;;;;;;;;15.40;85.80;;;;;;4016448;29;19999;-44
2024/03/14 04:13:05;;;;;;;;;;;15.40;85.80;;;;;;4015446;29;19994;-44
2024/03/14 04:15:47;;;;;;;;;;;15.40;85.90;;;;;;4001254;29;19930;-44
2024/03/14 04:18:29;;;;;;;;;;;15.40;85.90;;;;;;4016021;29;19930;-43
2024/03/14 04:21:14;;;;;;;;;;;15.50;86.00;;;;;;4027728;29;19934;-43
2024/03/14 04:23:56;;;;;;;;;;;15.50;86.00;;;;;;4020588;29;20043;-44
2024/03/14 04:26:38;;;;;;;;;;;15.50;85.80;;;;;;4031226;29;19934;-43
2024/03/14 04:29:20;;;;;;;;;;;15.50;85.60;;;;;;4031172;29;19990;-44
2024/03/14 04:32:01;;;;;;;;;;;15.60;85.40;;;;;;4016638;29;19978;-47
2024/03/14 04:34:42;;;;;;;;;;;15.60;85.30;;;;;;4015806;29;19966;-49
2024/03/14 04:37:25;;;;;;;;;;;15.60;86.20;;;;;;4015584;29;19934;-44
2024/03/14 04:40:11;;;;;;;;;;;15.60;85.30;;;;;;4019105;29;19935;-45
2024/03/14 04:42:53;;;;;;;;;;;15.70;85.20;;;;;;4012407;29;20031;-44
2024/03/14 04:45:33;;;;;;;;;;;15.70;85.10;;;;;;4033192;29;19946;-44
2024/03/14 04:48:16;;;;;;;;;;;15.70;85.00;;;;;;4008992;29;19930;-49
2024/03/14 04:50:59;;;;;;;;;;;15.70;85.00;;;;;;4018866;29;20277;-48
2024/03/14 04:53:40;;;;;;;;;;;15.70;84.90;;;;;;4017726;29;19930;-48
2024/03/14 04:56:22;;;;;;;;;;;15.70;84.90;;;;;;4035899;29;19934;-49
2024/03/14 04:59:03;;;;;;;;;;;15.70;84.90;;;;;;4049646;29;20737;-49
2024/03/14 05:01:44;;;;;;;;;;;15.70;84.90;;;;;;4042659;29;20288;-44
2024/03/14 05:04:25;;;;;;;;;;;15.70;84.90;;;;;;4018720;29;19931;-49
2024/03/14 05:07:06;;;;;;;;;;;15.70;84.70;;;;;;4005353;29;20005;-49
2024/03/14 05:09:47;;;;;;;;;;;15.80;84.80;;;;;;4014782;29;20285;-49
2024/03/14 05:12:28;;;;;;;;;;;15.80;84.80;;;;;;4035372;29;19934;-47
2024/03/14 05:15:09;;;;;;;;;;;15.80;84.70;;;;;;4006718;29;20047;-47
2024/03/14 05:17:51;;;;;;;;;;;15.80;84.50;;;;;;4009943;29;19931;-46
2024/03/14 05:20:32;;;;;;;;;;;15.90;84.40;;;;;;4016628;29;19950;-47
2024/03/14 05:23:13;;;;;;;;;;;15.90;84.20;;;;;;4013699;29;20059;-48
2024/03/14 05:25:54;;;;;;;;;;;16.00;84.20;;;;;;4007780;29;19931;-46
2024/03/14 05:28:35;;;;;;;;;;;16.00;84.00;;;;;;4018272;29;20040;-47
2024/03/14 05:31:17;;;;;;;;;;;16.10;83.70;;;;;;4014956;29;20385;-47
2024/03/14 05:33:57;;;;;;;;;;;16.20;83.40;;;;;;4004151;29;19934;-47
2024/03/14 05:36:38;;;;;;;;;;;16.30;83.10;;;;;;4018089;29;19934;-48
2024/03/14 05:39:21;;;;;;;;;;;16.30;83.70;;;;;;4017554;29;19931;-47
2024/03/14 05:42:02;;;;;;;;;;;16.30;82.60;;;;;;4025611;29;19935;-48
2024/03/14 05:44:43;;;;;;;;;;;16.30;82.60;;;;;;4017153;29;19950;-49
2024/03/14 05:47:24;;;;;;;;;;;16.30;82.60;;;;;;4027152;29;19930;-47
2024/03/14 05:50:07;;;;;;;;;;;16.30;82.60;;;;;;4016689;29;19942;-47
2024/03/14 05:52:49;;;;;;;;;;;16.30;82.50;;;;;;4017531;29;20396;-49
2024/03/14 05:55:30;;;;;;;;;;;16.30;82.40;;;;;;4006247;29;20428;-47
2024/03/14 05:58:11;;;;;;;;;;;16.40;82.50;;;;;;4017792;29;19995;-48
2024/03/14 06:00:54;;;;;;;;;;;16.30;82.50;;;;;;4016335;29;19935;-47
2024/03/14 06:03:34;;;;;;;;;;;16.30;83.40;;;;;;4028008;29;20372;-47
2024/03/14 06:06:18;;;;;;;;;;;16.30;82.70;;;;;;4020558;29;19930;-46
2024/03/14 06:08:59;;;;;;;;;;;16.30;82.70;;;;;;4015998;29;19984;-45
2024/03/14 06:11:40;;;;;;;;;;;16.30;82.50;;;;;;4017838;29;19978;-46
2024/03/14 06:14:23;;;;;;;;;;;16.40;82.40;;;;;;4018006;29;19934;-43
2024/03/14 06:17:03;;;;;;;;;;;16.40;82.40;;;;;;4018397;29;19939;-45
2024/03/14 06:19:46;;;;;;;;;;;16.40;82.40;;;;;;4004678;29;19931;-46
2024/03/14 06:22:27;;;;;;;;;;;16.30;82.30;;;;;;4012799;29;19938;-43
2024/03/14 06:25:10;;;;;;;;;;;16.30;82.50;;;;;;4017744;29;19931;-45
2024/03/14 06:27:52;;;;;;;;;;;16.30;82.60;;;;;;4017789;29;20037;-44
2024/03/14 06:30:33;;;;;;;;;;;16.20;82.70;;;;;;4017617;29;19950;-46
2024/03/14 06:33:14;;;;;;;;;;;16.20;83.70;;;;;;4017288;29;19988;-45
2024/03/14 06:35:55;;;;;;;;;;;16.20;83.20;;;;;;4013132;29;19931;-44
2024/03/14 06:38:36;;;;;;;;;;;16.10;83.40;;;;;;4022517;29;19931;-48
2024/03/14 06:41:17;;;;;;;;;;;16.10;83.40;;;;;;4017323;29;19935;-47
2024/03/14 06:43:58;;;;;;;;;;;16.10;83.60;;;;;;4026418;29;19934;-48
2024/03/14 06:46:40;;;;;;;;;;;16.10;83.70;;;;;;4016750;29;20281;-46
2024/03/14 06:49:22;;;;;;;;;;;16.20;83.70;;;;;;4010565;29;19950;-44
2024/03/14 06:52:05;;;;;;;;;;;16.30;83.30;;;;;;4035324;29;19930;-45
2024/03/14 06:54:46;;;;;;;;;;;16.30;82.90;;;;;;4032138;29;19930;-43
2024/03/14 06:57:26;;;;;;;;;;;16.30;82.50;;;;;;4005391;29;20297;-47
2024/03/14 07:00:12;;;;;;;;;;;16.40;82.50;;;;;;4001355;29;19935;-48
2024/03/14 07:02:53;;;;;;;;;;;16.40;82.50;;;;;;3999242;29;20691;-50
2024/03/14 07:05:36;;;;;;;;;;;16.40;82.50;;;;;;4014936;29;19934;-44
2024/03/14 07:08:17;;;;;;;;;;;16.40;82.40;;;;;;4004552;29;19979;-45
2024/03/14 07:10:58;;;;;;;;;;;16.40;82.50;;;;;;4003642;29;19950;-47
2024/03/14 07:13:39;;;;;;;;;;;16.40;82.60;;;;;;4009432;29;19934;-47
2024/03/14 07:16:21;;;;;;;;;;;16.40;82.80;;;;;;4009990;29;19962;-44
2024/03/14 07:19:02;;;;;;;;;;;16.40;82.50;;;;;;4000158;29;20046;-43
2024/03/14 07:21:44;;;;;;;;;;;16.30;82.10;;;;;;4000334;29;19986;-45
2024/03/14 07:24:25;;;;;;;;;;;16.40;81.80;;;;;;4017136;29;19931;-44
2024/03/14 07:27:06;;;;;;;;;;;16.40;81.80;;;;;;4006280;29;20064;-44
2024/03/14 07:29:48;;;;;;;;;;;16.40;81.30;;;;;;4030933;29;19934;-43
2024/03/14 07:32:29;;;;;;;;;;;16.40;81.00;;;;;;4007126;29;19934;-48
2024/03/14 07:35:10;;;;;;;;;;;16.30;80.50;;;;;;3986031;29;20087;-47
2024/03/14 07:37:55;;;;;;;;;;;16.30;80.00;;;;;;4018753;29;19930;-46
2024/03/14 07:40:36;;;;;;;;;;;16.40;79.70;;;;;;4008551;29;19931;-47
2024/03/14 07:43:17;;;;;;;;;;;16.40;79.40;;;;;;4000484;29;20499;-44
2024/03/14 07:45:57;;;;;;;;;;;16.50;79.20;;;;;;3990283;29;19935;-46
2024/03/14 07:48:39;;;;;;;;;;;16.40;78.70;;;;;;3991867;29;20399;-47
2024/03/14 07:51:19;;;;;;;;;;;16.40;78.50;;;;;;4007196;29;19939;-47
2024/03/14 07:54:00;;;;;;;;;;;16.40;78.30;;;;;;4000735;29;19930;-47
2024/03/14 07:56:43;;;;;;;;;;;16.40;78.20;;;;;;4001275;29;20381;-47
2024/03/14 07:59:24;;;;;;;;;;;16.40;78.30;;;;;;3999975;29;19935;-44
2024/03/14 08:02:07;;;;;;;;;;;16.30;78.40;;;;;;4000715;29;19931;-44
2024/03/14 08:04:48;;;;;;;;;;;16.30;78.40;;;;;;3990319;29;19931;-45
2024/03/14 08:07:29;;;;;;;;;;;16.20;79.30;;;;;;4001667;29;19950;-47
2024/03/14 08:10:10;;;;;;;;;;;16.20;78.70;;;;;;4014990;29;20333;-48
2024/03/14 08:12:50;;;;;;;;;;;16.20;78.90;;;;;;4015560;29;19930;-47
2024/03/14 08:15:35;;;;;;;;;;;16.20;79.00;;;;;;4023947;29;19946;-47
2024/03/14 08:18:17;;;;;;;;;;;16.10;79.00;;;;;;4019477;29;20321;-46
2024/03/14 08:20:58;;;;;;;;;;;16.10;79.20;;;;;;4024427;29;19934;-44
2024/03/14 08:23:40;;;;;;;;;;;16.10;79.30;;;;;;4015935;29;19931;-44
2024/03/14 08:26:21;;;;;;;;;;;16.00;79.30;;;;;;4014315;29;19940;-44
2024/03/14 08:29:02;;;;;;;;;;;16.00;79.30;;;;;;4000855;29;19931;-43
2024/03/14 08:31:45;;;;;;;;;;;16.00;80.30;;;;;;4013692;29;20064;-43
2024/03/14 08:34:27;;;;;;;;;;;16.00;79.50;;;;;;4016164;29;19930;-43
2024/03/14 08:37:10;;;;;;;;;;;16.00;79.60;;;;;;4014432;29;19962;-43
2024/03/14 08:39:50;;;;;;;;;;;15.90;79.70;;;;;;4015875;29;19974;-44
2024/03/14 08:42:31;;;;;;;;;;;15.90;79.80;;;;;;4014853;29;19951;-48
2024/03/14 08:45:19;;;;;;;;;;;15.90;79.90;;;;;;4017772;29;19930;-50
2024/03/14 08:48:01;;;;;;;;;;;15.90;80.00;;;;;;4013363;29;20357;-48
2024/03/14 08:50:42;;;;;;;;;;;15.90;80.30;;;;;;4007613;29;19939;-47
2024/03/14 08:53:23;;;;;;;;;;;15.90;80.30;;;;;;4016016;29;20299;-47
2024/03/14 08:56:07;;;;;;;;;;;15.90;80.40;;;;;;4014189;29;20072;-47
2024/03/14 08:58:56;;;;;;;;;;;15.90;80.50;;;;;;4026282;29;19933;-42
2024/03/14 09:01:37;;;;;;;;;;;15.90;80.50;;;;;;4022154;29;19938;-44
2024/03/14 09:04:20;;;;;;;;;;;15.90;80.70;;;;;;4012731;29;19934;-47
2024/03/14 09:07:00;;;;;;;;;;;15.90;80.80;;;;;;4025121;29;20054;-44
2024/03/14 09:09:41;;;;;;;;;;;15.90;80.80;;;;;;4016648;29;19990;-44
2024/03/14 09:12:25;;;;;;;;;;;15.90;81.60;;;;;;4012510;29;20423;-42
2024/03/14 09:15:09;;;;;;;;;;;15.90;80.80;;;;;;4009311;29;19980;-46
2024/03/14 09:17:50;;;;;;;;;;;15.90;80.80;;;;;;4017866;29;20079;-43
2024/03/14 09:20:31;;;;;;;;;;;15.90;80.80;;;;;;4013096;29;19999;-47
2024/03/14 09:23:16;;;;;;;;;;;15.90;80.80;;;;;;4025627;29;19934;-47
2024/03/14 09:25:57;;;;;;;;;;;16.00;81.70;;;;;;4031788;29;19934;-48
2024/03/14 09:28:38;;;;;;;;;;;15.90;80.80;;;;;;4015476;29;19927;-48
2024/03/14 09:31:19;;;;;;;;;;;16.00;80.80;;;;;;4025087;29;19973;-44
2024/03/14 09:34:00;;;;;;;;;;;16.00;80.80;;;;;;4016379;29;19995;-44
2024/03/14 09:36:41;;;;;;;;;;;16.00;80.80;;;;;;4017648;29;19939;-45
2024/03/14 09:39:22;;;;;;;;;;;16.00;80.80;;;;;;4014402;29;20005;-44
2024/03/14 09:42:03;;;;;;;;;;;16.00;80.80;;;;;;4019697;29;19938;-43
2024/03/14 09:44:44;;;;;;;;;;;16.00;80.80;;;;;;4019421;29;19930;-45
2024/03/14 09:47:26;;;;;;;;;;;16.00;80.80;;;;;;4019251;29;20285;-43
2024/03/14 09:50:08;;;;;;;;;;;16.00;80.90;;;;;;4017290;29;20141;-44
2024/03/14 09:52:49;;;;;;;;;;;16.00;80.80;;;;;;4013276;29;19951;-44
2024/03/14 09:55:30;;;;;;;;;;;16.00;80.80;;;;;;4009136;29;20293;-50
2024/03/14 09:58:14;;;;;;;;;;;16.00;80.90;;;;;;4015646;29;20425;-43
2024/03/14 10:00:55;;;;;;;;;;;16.00;81.10;;;;;;4016002;29;19935;-43
2024/03/14 10:03:38;;;;;;;;;;;16.00;81.50;;;;;;4015448;29;19935;-43
2024/03/14 10:06:20;;;;;;;;;;;16.10;82.00;;;;;;4020742;29;19967;-42
2024/03/14 10:09:04;;;;;;;;;;;16.10;82.50;;;;;;4015701;29;19934;-48
2024/03/14 10:11:50;;;;;;;;;;;16.10;83.00;;;;;;4017408;29;19983;-46
2024/03/14 10:14:32;;;;;;;;;;;16.10;83.50;;;;;;4017119;29;19935;-51
2024/03/14 10:17:13;;;;;;;;;;;16.20;84.90;;;;;;4023829;29;19939;-47
2024/03/14 10:19:54;;;;;;;;;;;16.30;84.00;;;;;;4017967;29;19999;-47
2024/03/14 10:22:35;;;;;;;;;;;16.30;83.80;;;;;;4012285;29;19943;-46
2024/03/14 10:25:17;;;;;;;;;;;16.30;83.80;;;;;;4021781;29;20285;-44
2024/03/14 10:27:58;;;;;;;;;;;16.40;83.90;;;;;;4015281;29;19938;-43
2024/03/14 10:30:48;;;;;;;;;;;16.30;83.60;;;;;;4018906;29;19938;-44
2024/03/14 10:33:30;;;;;;;;;;;16.40;83.50;;;;;;3999936;29;19988;-45
2024/03/14 10:36:11;;;;;;;;;;;16.40;83.80;;;;;;4027869;29;19934;-44
2024/03/14 10:38:53;;;;;;;;;;;16.50;83.80;;;;;;4014843;29;19934;-44
2024/03/14 10:41:34;;;;;;;;;;;16.60;83.60;;;;;;4012569;29;19987;-43
2024/03/14 10:44:15;;;;;;;;;;;16.70;83.50;;;;;;4017048;29;19974;-42
2024/03/14 10:46:56;;;;;;;;;;;16.70;82.80;;;;;;4016078;29;20098;-49
2024/03/14 10:49:38;;;;;;;;;;;16.70;82.30;;;;;;4021789;29;20009;-48
2024/03/14 10:52:21;;;;;;;;;;;16.70;82.10;;;;;;4021577;29;19931;-47
2024/03/14 10:55:02;;;;;;;;;;;16.80;82.00;;;;;;4017353;29;19937;-47
2024/03/14 10:57:43;;;;;;;;;;;16.80;82.00;;;;;;4025197;29;19934;-46
2024/03/14 11:00:24;;;;;;;;;;;16.80;81.50;;;;;;4012948;29;19931;-44
2024/03/14 11:03:06;;;;;;;;;;;16.80;81.10;;;;;;4022753;29;19930;-43
2024/03/14 11:05:48;;;;;;;;;;;16.90;81.00;;;;;;4016179;29;19931;-43
2024/03/14 11:08:28;;;;;;;;;;;16.90;80.90;;;;;;4004541;29;19931;-43
2024/03/14 11:11:12;;;;;;;;;;;16.90;80.70;;;;;;4003670;29;19939;-42
2024/03/14 11:13:53;;;;;;;;;;;16.90;80.60;;;;;;4011656;29;19934;-42
2024/03/14 11:16:34;;;;;;;;;;;16.90;80.60;;;;;;3997468;29;19935;-42
2024/03/14 11:19:16;;;;;;;;;;;16.90;80.60;;;;;;4005369;29;19950;-42
2024/03/14 11:21:57;;;;;;;;;;;16.90;80.60;;;;;;3998350;29;19962;-46
2024/03/14 11:24:38;;;;;;;;;;;16.90;81.30;;;;;;3998833;29;19939;-46
2024/03/14 11:27:20;;;;;;;;;;;16.90;80.40;;;;;;4009077;29;20010;-47
2024/03/14 11:30:01;;;;;;;;;;;16.90;80.40;;;;;;3998480;29;19935;-46
2024/03/14 11:32:47;;;;;;;;;;;16.90;80.40;;;;;;4001740;29;19954;-46
2024/03/14 11:35:43;;;;;;;;;;;17.00;80.50;;;;;;3997787;29;20029;-46
2024/03/14 11:38:25;;;;;;;;;;;17.00;80.50;;;;;;4013033;29;19950;-46
2024/03/14 11:41:06;;;;;;;;;;;17.00;80.50;;;;;;4000358;29;20510;-46
2024/03/14 11:43:47;;;;;;;;;;;17.00;80.40;;;;;;4002195;29;20067;-46
2024/03/14 11:46:29;;;;;;;;;;;17.00;80.20;;;;;;4005436;29;19970;-46
2024/03/14 11:49:16;;;;;;;;;;;17.00;81.10;;;;;;4005684;29;19943;-47
2024/03/14 11:51:59;;;;;;;;;;;17.00;80.10;;;;;;4007737;29;19931;-46
2024/03/14 11:54:40;;;;;;;;;;;17.00;80.00;;;;;;3993297;29;19935;-46
2024/03/14 11:57:23;;;;;;;;;;;17.00;80.00;;;;;;4013779;29;19971;-43
2024/03/14 12:00:08;;;;;;;;;;;17.10;80.80;;;;;;4001020;29;19935;-43
2024/03/14 12:02:49;;;;;;;;;;;17.10;80.10;;;;;;3998626;29;20061;-42
2024/03/14 12:05:34;;;;;;;;;;;17.10;80.30;;;;;;4012646;29;20059;-42
2024/03/14 12:08:15;;;;;;;;;;;17.20;80.60;;;;;;4033110;29;19981;-47
2024/03/14 12:10:57;;;;;;;;;;;17.20;80.60;;;;;;4023423;29;19979;-46
2024/03/14 12:13:39;;;;;;;;;;;17.20;80.60;;;;;;4024132;29;20076;-44
2024/03/14 12:16:20;;;;;;;;;;;17.30;80.60;;;;;;4024867;29;19934;-42
2024/03/14 12:19:01;;;;;;;;;;;17.30;80.60;;;;;;4035118;29;20292;-42
2024/03/14 12:21:42;;;;;;;;;;;17.30;80.50;;;;;;4024749;29;20503;-42
2024/03/14 12:24:23;;;;;;;;;;;17.30;80.50;;;;;;4039606;29;19933;-42
2024/03/14 12:27:04;;;;;;;;;;;17.40;80.50;;;;;;4031666;29;20494;-42
2024/03/14 12:29:45;;;;;;;;;;;17.40;81.30;;;;;;4020379;29;19973;-43
2024/03/14 12:32:27;;;;;;;;;;;17.40;80.10;;;;;;4024380;29;20400;-42
2024/03/14 12:35:09;;;;;;;;;;;17.40;80.10;;;;;;4036897;29;19935;-42
2024/03/14 12:37:52;;;;;;;;;;;17.40;80.60;;;;;;4038976;29;19930;-42
2024/03/14 12:40:33;;;;;;;;;;;17.40;79.50;;;;;;4036411;29;19934;-41
2024/03/14 12:43:14;;;;;;;;;;;17.40;79.30;;;;;;4028929;29;19930;-44
2024/03/14 12:45:54;;;;;;;;;;;17.40;79.00;;;;;;4024750;29;19983;-42
2024/03/14 12:48:36;;;;;;;;;;;17.40;78.90;;;;;;4038760;29;19950;-42
2024/03/14 12:51:18;;;;;;;;;;;17.40;78.80;;;;;;4037525;29;20433;-42
2024/03/14 12:54:00;;;;;;;;;;;17.40;78.70;;;;;;4023719;29;19950;-42
2024/03/14 12:56:43;;;;;;;;;;;17.40;78.60;;;;;;4039035;29;20501;-43
2024/03/14 12:59:24;;;;;;;;;;;17.40;78.60;;;;;;4025791;29;20071;-45
2024/03/14 13:02:08;;;;;;;;;;;17.40;78.60;;;;;;4034007;29;19939;-43
2024/03/14 13:04:48;;;;;;;;;;;17.40;78.90;;;;;;4042437;29;19934;-42
2024/03/14 13:07:30;;;;;;;;;;;17.40;79.20;;;;;;4039095;29;19959;-42
2024/03/14 13:10:11;;;;;;;;;;;17.40;79.50;;;;;;4035207;29;20044;-44
2024/03/14 13:12:56;;;;;;;;;;;17.40;79.50;;;;;;4039482;29;19934;-42
2024/03/14 13:15:40;;;;;;;;;;;17.40;80.30;;;;;;4038496;29;20403;-44
2024/03/14 13:18:21;;;;;;;;;;;17.40;79.60;;;;;;4039691;29;20285;-45
2024/03/14 13:21:03;;;;;;;;;;;17.40;79.60;;;;;;4029488;29;20072;-46
2024/03/14 13:23:45;;;;;;;;;;;17.40;79.40;;;;;;4029441;29;19934;-45
2024/03/14 13:26:27;;;;;;;;;;;17.40;79.20;;;;;;4029142;29;19931;-42
2024/03/14 13:29:08;;;;;;;;;;;17.40;80.10;;;;;;4023124;29;20706;-44
2024/03/14 13:31:49;;;;;;;;;;;17.50;79.30;;;;;;4060083;29;19934;-42
2024/03/14 13:34:31;;;;;;;;;;;17.50;79.80;;;;;;4060247;29;19930;-43
2024/03/14 13:37:14;;;;;;;;;;;17.50;79.80;;;;;;4060218;29;19974;-43
2024/03/14 13:39:55;;;;;;;;;;;17.50;79.60;;;;;;4059250;29;19930;-43
2024/03/14 13:42:35;;;;;;;;;;;17.60;79.50;;;;;;4059838;29;19934;-43
2024/03/14 13:45:18;;;;;;;;;;;17.60;80.30;;;;;;4059504;29;20299;-42
2024/03/14 13:47:59;;;;;;;;;;;17.60;79.00;;;;;;4038834;29;19930;-42
2024/03/14 13:50:41;;;;;;;;;;;17.60;78.70;;;;;;4037178;29;19931;-45
2024/03/14 13:53:24;;;;;;;;;;;17.60;78.60;;;;;;4039353;29;20068;-42
2024/03/14 13:56:13;;;;;;;;;;;17.60;78.50;;;;;;4028907;29;19966;-42
2024/03/14 13:58:56;;;;;;;;;;;17.60;78.70;;;;;;4039229;29;20053;-39
2024/03/14 14:01:37;;;;;;;;;;;17.60;78.40;;;;;;4028391;29;20372;-42
2024/03/14 14:04:19;;;;;;;;;;;17.60;78.40;;;;;;4028708;29;19931;-42
2024/03/14 14:06:59;;;;;;;;;;;17.70;78.10;;;;;;4030264;29;19930;-41
2024/03/14 14:09:40;;;;;;;;;;;17.70;77.90;;;;;;4048959;29;19934;-40
2024/03/14 14:12:22;;;;;;;;;;;17.70;77.70;;;;;;4059722;29;20381;-42
2024/03/14 14:15:03;;;;;;;;;;;17.70;77.60;;;;;;4059414;29;19930;-42
2024/03/14 14:17:44;;;;;;;;;;;;;;;;;;4030118;29;19930;-41
2024/03/14 14:20:29;;;;;;;;;;;17.70;76.90;;;;;;4046087;29;20292;-42
2024/03/14 14:23:09;;;;;;;;;;;17.70;77.50;;;;;;4032854;29;20392;-41
2024/03/14 14:25:50;;;;;;;;;;;17.70;77.20;;;;;;4028145;29;19979;-41
2024/03/14 14:28:31;;;;;;;;;;;17.70;77.20;;;;;;4016322;29;19935;-41
2024/03/14 14:31:13;;;;;;;;;;;17.70;77.20;;;;;;4024839;29;19935;-42
2024/03/14 14:33:55;;;;;;;;;;;17.70;77.20;;;;;;4028237;29;19976;-42
2024/03/14 14:36:36;;;;;;;;;;;17.70;77.20;;;;;;4027778;29;20075;-41
2024/03/14 14:39:16;;;;;;;;;;;17.70;77.20;;;;;;4044233;29;19934;-42
2024/03/14 14:41:58;;;;;;;;;;;17.70;77.20;;;;;;4041557;29;20037;-48
2024/03/14 14:44:40;;;;;;;;;;;17.70;77.20;;;;;;4042957;29;19939;-47
2024/03/14 14:47:20;;;;;;;;;;;17.70;77.20;;;;;;4042465;29;19942;-49
2024/03/14 14:50:02;;;;;;;;;;;17.70;77.10;;;;;;4042295;29;19934;-47
2024/03/14 14:52:43;;;;;;;;;;;17.70;77.10;;;;;;4037454;29;20002;-48
2024/03/14 14:55:24;;;;;;;;;;;17.70;77.10;;;;;;4033421;29;19930;-52
2024/03/14 14:58:06;;;;;;;;;;;17.70;77.10;;;;;;4021943;29;19979;-49
2024/03/14 15:00:48;;;;;;;;;;;17.60;77.00;;;;;;4027416;29;19934;-47
2024/03/14 15:03:29;;;;;;;;;;;17.60;76.90;;;;;;4027652;29;19930;-48
2024/03/14 15:06:10;;;;;;;;;;;17.60;76.80;;;;;;4027172;29;19975;-48
2024/03/14 15:08:51;;;;;;;;;;;17.60;77.70;;;;;;4055064;29;20324;-50
2024/03/14 15:11:32;;;;;;;;;;;17.60;76.80;;;;;;4058210;29;19930;-48
2024/03/14 15:14:14;;;;;;;;;;;17.60;76.80;;;;;;4045330;29;20063;-49
2024/03/14 15:16:55;;;;;;;;;;;17.60;76.80;;;;;;4058124;29;19934;-48
2024/03/14 15:19:37;;;;;;;;;;;17.60;76.90;;;;;;4057959;29;19930;-49
2024/03/14 15:22:19;;;;;;;;;;;17.60;76.90;;;;;;4057098;29;19982;-47
2024/03/14 15:25:00;;;;;;;;;;;17.50;77.80;;;;;;4039055;29;19935;-48
2024/03/14 15:27:41;;;;;;;;;;;17.60;77.10;;;;;;4023095;29;19930;-49
2024/03/14 15:30:23;;;;;;;;;;;17.60;77.10;;;;;;4026744;29;20015;-48
2024/03/14 15:33:05;;;;;;;;;;;17.60;77.10;;;;;;4026768;29;20401;-42
2024/03/14 15:35:46;;;;;;;;;;;17.60;77.10;;;;;;4026696;29;19934;-42
2024/03/14 15:38:27;;;;;;;;;;;17.60;77.20;;;;;;4027899;29;20351;-41
2024/03/14 15:41:11;;;;;;;;;;;17.50;78.00;;;;;;4026746;29;19950;-73